createdAt,value
2019-06-27T00:01:23.087Z,54.92
2019-06-27T00:03:53.470Z,54.60
2019-06-27T00:06:24.492Z,54.57
2019-06-27T00:08:55.006Z,54.31
2019-06-27T00:11:25.483Z,54.04
2019-06-27T00:13:55.782Z,56.33
2019-06-27T00:16:26.116Z,56.10
2019-06-27T00:18:56.438Z,55.56
2019-06-27T00:21:27.061Z,56.05
2019-06-27T00:23:57.361Z,55.51
2019-06-27T00:26:27.768Z,56.34
2019-06-27T00:28:58.101Z,54.30
2019-06-27T00:31:28.721Z,54.00
2019-06-27T00:33:59.402Z,55.91
2019-06-27T00:36:29.871Z,55.10
2019-06-27T00:39:00.255Z,55.26
2019-06-27T00:41:30.676Z,55.52
2019-06-27T00:44:01.067Z,55.87
2019-06-27T00:46:31.386Z,55.00
2019-06-27T00:49:01.886Z,56.62
2019-06-27T00:51:32.402Z,55.28
2019-06-27T00:54:03.006Z,57.12
2019-06-27T00:56:33.481Z,54.61
2019-06-27T00:59:03.931Z,56.11
2019-06-27T01:01:34.375Z,55.64
2019-06-27T01:04:04.943Z,55.29
2019-06-27T01:06:35.470Z,56.10
2019-06-27T01:09:07.302Z,54.42
2019-06-27T01:11:37.774Z,56.08
2019-06-27T01:14:08.224Z,55.25
2019-06-27T01:16:38.613Z,53.73
2019-06-27T01:19:09.152Z,57.03
2019-06-27T01:21:39.744Z,57.98
2019-06-27T01:24:10.250Z,54.48
2019-06-27T01:26:40.690Z,55.21
2019-06-27T01:29:11.374Z,53.52
2019-06-27T01:31:41.875Z,57.98
2019-06-27T01:34:12.329Z,56.67
2019-06-27T01:36:42.831Z,53.56
2019-06-27T01:39:13.263Z,56.75
2019-06-27T01:41:44.028Z,55.52
2019-06-27T01:44:31.950Z,57.73
2019-06-27T01:47:03.209Z,54.90
2019-06-27T01:49:33.697Z,54.00
2019-06-27T01:52:04.295Z,53.53
2019-06-27T01:54:34.730Z,53.48
2019-06-27T01:57:05.313Z,53.43
2019-06-27T01:59:36.104Z,55.36
2019-06-27T02:02:07.317Z,54.57
2019-06-27T02:04:37.962Z,54.64
2019-06-27T02:07:08.397Z,53.28
2019-06-27T02:09:39.162Z,52.61
2019-06-27T02:12:09.603Z,54.31
2019-06-27T02:14:41.428Z,55.24
2019-06-27T02:17:11.855Z,54.64
2019-06-27T02:19:42.339Z,54.75
2019-06-27T02:22:13.073Z,53.45
2019-06-27T02:24:43.418Z,55.90
2019-06-27T02:27:13.913Z,53.23
2019-06-27T02:29:44.477Z,51.90
2019-06-27T02:32:14.847Z,53.89
2019-06-27T02:34:45.249Z,57.30
2019-06-27T02:37:15.691Z,54.08
2019-06-27T02:39:46.016Z,52.16
2019-06-27T02:42:16.483Z,53.02
2019-06-27T02:44:47.273Z,53.09
2019-06-27T02:47:17.708Z,53.29
2019-06-27T02:49:50.411Z,53.13
2019-06-27T02:52:20.344Z,53.01
2019-06-27T02:54:50.735Z,54.97
2019-06-27T02:57:21.363Z,55.88
2019-06-27T02:59:51.670Z,55.30
2019-06-27T03:02:22.141Z,53.46
2019-06-27T03:04:52.533Z,52.40
2019-06-27T03:07:23.215Z,53.78
2019-06-27T03:09:53.793Z,53.74
2019-06-27T03:12:24.248Z,53.08
2019-06-27T03:14:54.847Z,52.24
2019-06-27T03:17:25.329Z,52.22
2019-06-27T03:19:55.800Z,52.89
2019-06-27T03:22:26.098Z,52.99
2019-06-27T03:24:56.582Z,53.02
2019-06-27T03:27:26.935Z,52.24
2019-06-27T03:29:57.280Z,51.96
2019-06-27T03:32:27.721Z,51.88
2019-06-27T03:34:58.050Z,53.54
2019-06-27T03:37:28.497Z,51.40
2019-06-27T03:39:58.991Z,53.03
2019-06-27T03:42:29.306Z,52.57
2019-06-27T03:44:59.908Z,52.74
2019-06-27T03:47:30.277Z,50.61
2019-06-27T03:50:00.759Z,50.39
2019-06-27T03:52:31.051Z,52.74
2019-06-27T03:55:01.516Z,51.85
2019-06-27T03:57:31.875Z,51.89
2019-06-27T04:00:02.247Z,52.07
2019-06-27T04:02:32.875Z,50.89
2019-06-27T04:05:03.298Z,51.53
2019-06-27T04:07:33.804Z,51.61
2019-06-27T04:10:04.261Z,51.46
2019-06-27T04:12:34.995Z,55.44
2019-06-27T04:15:05.726Z,52.56
2019-06-27T04:17:36.153Z,52.45
2019-06-27T04:20:06.880Z,50.33
2019-06-27T04:22:37.340Z,48.57
2019-06-27T04:25:08.561Z,47.86
2019-06-27T04:27:39.034Z,48.61
2019-06-27T04:30:10.538Z,51.09
2019-06-27T04:32:41.145Z,50.30
2019-06-27T04:35:11.848Z,56.06
2019-06-27T04:37:42.486Z,53.93
2019-06-27T04:40:13.402Z,52.44
2019-06-27T04:42:44.220Z,55.97
2019-06-27T04:45:17.069Z,56.86
2019-06-27T04:47:47.781Z,55.10
2019-06-27T04:50:18.759Z,54.56
2019-06-27T04:52:50.632Z,56.89
2019-06-27T04:55:21.135Z,57.58
2019-06-27T04:57:51.804Z,53.87
2019-06-27T05:00:30.320Z,56.56
2019-06-27T05:03:01.114Z,54.19
2019-06-27T05:05:31.936Z,51.96
2019-06-27T05:08:02.551Z,52.53
2019-06-27T05:10:36.131Z,49.95
2019-06-27T05:13:06.689Z,46.09
2019-06-27T05:15:37.169Z,49.70
2019-06-27T05:18:07.551Z,51.01
2019-06-27T05:20:38.180Z,48.27
2019-06-27T05:23:08.608Z,44.71
2019-06-27T05:25:39.135Z,47.23
2019-06-27T05:28:09.389Z,48.58
2019-06-27T05:30:39.793Z,48.96
2019-06-27T05:33:10.100Z,49.29
2019-06-27T05:35:40.359Z,47.46
2019-06-27T05:38:10.905Z,45.55
2019-06-27T05:40:41.320Z,48.04
2019-06-27T05:43:11.573Z,48.82
2019-06-27T05:45:41.970Z,48.32
2019-06-27T05:48:12.279Z,49.84
2019-06-27T05:50:42.673Z,50.66
2019-06-27T05:53:13.537Z,56.56
2019-06-27T05:55:44.051Z,56.12
2019-06-27T05:58:14.755Z,57.19
2019-06-27T06:00:45.631Z,55.43
2019-06-27T06:03:16.008Z,54.69
2019-06-27T06:05:46.622Z,56.31
2019-06-27T06:08:16.980Z,59.24
2019-06-27T06:10:47.339Z,57.31
2019-06-27T06:13:17.735Z,54.83
2019-06-27T06:15:48.329Z,55.90
2019-06-27T06:18:18.973Z,58.95
2019-06-27T06:20:49.539Z,58.98
2019-06-27T06:23:19.830Z,59.91
2019-06-27T06:25:50.198Z,58.28
2019-06-27T06:28:20.496Z,58.18
2019-06-27T06:30:50.894Z,55.62
2019-06-27T06:33:21.375Z,57.47
2019-06-27T06:35:51.832Z,55.79
2019-06-27T06:38:22.202Z,51.34
2019-06-27T06:40:52.605Z,56.29
2019-06-27T06:43:22.927Z,52.80
2019-06-27T06:45:53.393Z,56.92
2019-06-27T06:48:23.695Z,54.17
2019-06-27T06:50:54.120Z,50.17
2019-06-27T06:53:24.518Z,52.09
2019-06-27T06:55:55.046Z,51.40
2019-06-27T06:58:25.813Z,55.42
2019-06-27T07:01:01.629Z,53.15
2019-06-27T07:03:28.253Z,48.67
2019-06-27T07:05:59.341Z,48.69
2019-06-27T07:08:29.756Z,46.47
2019-06-27T07:11:00.576Z,45.83
2019-06-27T07:13:31.112Z,45.32
2019-06-27T07:16:01.926Z,46.10
2019-06-27T07:18:32.259Z,45.00
2019-06-27T07:21:02.654Z,44.34
2019-06-27T07:23:33.075Z,44.82
2019-06-27T07:26:03.608Z,45.46
2019-06-27T07:28:34.254Z,45.00
2019-06-27T07:31:17.183Z,46.01
2019-06-27T07:33:37.045Z,46.23
2019-06-27T07:36:07.475Z,44.40
2019-06-27T07:38:37.862Z,45.00
2019-06-27T07:41:08.400Z,46.28
2019-06-27T07:43:38.809Z,44.27
2019-06-27T07:46:24.040Z,44.68
2019-06-27T07:48:41.333Z,45.66
2019-06-27T07:51:11.985Z,43.90
2019-06-27T07:53:42.773Z,43.63
2019-06-27T07:56:13.364Z,44.40
2019-06-27T07:58:43.920Z,43.35
2019-06-27T08:01:14.365Z,42.39
2019-06-27T08:03:45.015Z,44.20
2019-06-27T08:06:15.608Z,45.37
2019-06-27T08:08:46.045Z,43.64
2019-06-27T08:11:16.627Z,44.60
2019-06-27T08:13:47.010Z,44.52
2019-06-27T08:16:17.380Z,44.21
2019-06-27T08:18:47.784Z,45.19
2019-06-27T08:21:18.491Z,43.11
2019-06-27T08:23:49.425Z,44.73
2019-06-27T08:26:19.920Z,42.84
2019-06-27T08:28:50.842Z,45.60
2019-06-27T08:31:21.416Z,44.21
2019-06-27T08:33:52.001Z,43.65
2019-06-27T08:36:22.398Z,43.53
2019-06-27T08:38:52.783Z,45.45
2019-06-27T08:41:23.235Z,46.15
2019-06-27T08:43:53.523Z,44.37
2019-06-27T08:46:23.916Z,45.37
2019-06-27T08:48:54.342Z,43.82
2019-06-27T08:51:24.915Z,43.32
2019-06-27T08:53:55.608Z,43.42
2019-06-27T08:56:27.143Z,42.53
2019-06-27T08:58:57.536Z,44.44
2019-06-27T09:01:28.009Z,45.01
2019-06-27T09:03:58.391Z,47.64
2019-06-27T09:06:29.154Z,46.98
2019-06-27T09:08:59.992Z,45.08
2019-06-27T09:11:34.492Z,44.90
2019-06-27T09:14:02.897Z,45.67
2019-06-27T09:16:33.570Z,45.02
2019-06-27T09:19:04.467Z,44.91
2019-06-27T09:21:34.915Z,43.56
2019-06-27T09:24:05.769Z,43.08
2019-06-27T09:26:36.243Z,44.74
2019-06-27T09:29:06.997Z,44.64
2019-06-27T09:31:37.462Z,44.48
2019-06-27T09:34:08.263Z,44.71
2019-06-27T09:36:38.626Z,44.88
2019-06-27T09:39:09.103Z,44.63
2019-06-27T09:41:39.852Z,42.99
2019-06-27T09:44:10.408Z,43.70
2019-06-27T09:46:40.870Z,44.42
2019-06-27T09:49:11.641Z,43.49
2019-06-27T09:51:42.494Z,44.12
2019-06-27T09:54:12.914Z,43.26
2019-06-27T09:56:43.726Z,44.38
2019-06-27T09:59:14.617Z,45.75
2019-06-27T10:01:45.605Z,45.08
2019-06-27T10:04:16.043Z,42.37
2019-06-27T10:06:46.798Z,44.65
2019-06-27T10:09:17.735Z,44.37
2019-06-27T10:11:48.200Z,43.69
2019-06-27T10:14:18.527Z,44.95
2019-06-27T10:16:50.392Z,44.64
2019-06-27T10:19:21.030Z,45.92
2019-06-27T10:21:51.415Z,44.55
2019-06-27T10:24:21.815Z,45.55
2019-06-27T10:26:52.302Z,45.43
2019-06-27T10:29:22.704Z,45.66
2019-06-27T10:31:53.123Z,43.54
2019-06-27T10:34:23.650Z,44.02
2019-06-27T10:36:54.332Z,44.31
2019-06-27T10:39:24.731Z,43.93
2019-06-27T10:41:55.175Z,42.57
2019-06-27T10:44:25.532Z,39.91
2019-06-27T10:46:55.958Z,41.37
2019-06-27T10:49:26.372Z,42.04
2019-06-27T10:51:56.964Z,42.10
2019-06-27T10:54:27.507Z,41.56
2019-06-27T10:56:57.889Z,40.42
2019-06-27T10:59:28.409Z,39.91
2019-06-27T11:01:59.528Z,41.37
2019-06-27T11:04:30.791Z,41.85
2019-06-27T11:07:01.677Z,42.36
2019-06-27T11:09:31.983Z,41.71
2019-06-27T11:12:02.837Z,42.00
2019-06-27T11:14:33.159Z,41.71
2019-06-27T11:17:03.642Z,42.97
2019-06-27T11:19:34.034Z,43.10
2019-06-27T11:22:04.706Z,42.13
2019-06-27T11:24:35.360Z,42.24
2019-06-27T11:27:05.907Z,41.99
2019-06-27T11:29:36.495Z,41.66
2019-06-27T11:32:06.970Z,40.80
2019-06-27T11:34:37.321Z,42.30
2019-06-27T11:37:07.713Z,41.71
2019-06-27T11:39:38.466Z,41.30
2019-06-27T11:42:08.900Z,41.38
2019-06-27T11:44:39.287Z,42.08
2019-06-27T11:47:09.874Z,41.69
2019-06-27T11:49:40.869Z,42.32
2019-06-27T11:52:11.272Z,41.63
2019-06-27T11:54:41.731Z,40.51
2019-06-27T11:57:12.100Z,40.40
2019-06-27T11:59:42.466Z,39.44
2019-06-27T12:02:12.943Z,39.38
2019-06-27T12:04:43.335Z,38.99
2019-06-27T12:07:13.760Z,39.39
2019-06-27T12:09:44.123Z,38.88
2019-06-27T12:12:14.719Z,38.82
2019-06-27T12:14:44.955Z,39.52
2019-06-27T12:17:15.629Z,38.59
2019-06-27T12:19:46.142Z,38.78
2019-06-27T12:22:16.535Z,38.97
2019-06-27T12:24:46.915Z,37.90
2019-06-27T12:27:17.246Z,38.50
2019-06-27T12:29:47.974Z,38.59
2019-06-27T12:32:18.557Z,39.62
2019-06-27T12:34:49.001Z,39.60
2019-06-27T12:37:19.384Z,39.41
2019-06-27T12:39:49.837Z,40.15
2019-06-27T12:42:31.960Z,39.45
2019-06-27T12:44:52.215Z,38.35
2019-06-27T12:47:23.130Z,38.12
2019-06-27T12:50:02.295Z,38.21
2019-06-27T12:52:25.804Z,38.12
2019-06-27T12:54:56.199Z,38.14
2019-06-27T12:57:26.613Z,38.15
2019-06-27T12:59:56.997Z,38.24
2019-06-27T13:02:27.510Z,38.37
2019-06-27T13:04:57.816Z,38.65
2019-06-27T13:07:28.314Z,38.21
2019-06-27T13:09:58.611Z,38.29
2019-06-27T13:12:29.111Z,37.53
2019-06-27T13:14:59.480Z,37.87
2019-06-27T13:17:29.804Z,38.08
2019-06-27T13:20:00.562Z,37.45
2019-06-27T13:22:31.274Z,37.12
2019-06-27T13:25:01.500Z,36.81
2019-06-27T13:27:31.830Z,37.07
2019-06-27T13:30:02.284Z,37.98
2019-06-27T13:32:32.620Z,37.56
2019-06-27T13:35:03.435Z,37.58
2019-06-27T13:37:33.883Z,37.14
2019-06-27T13:40:04.981Z,36.66
2019-06-27T13:42:38.204Z,36.34
2019-06-27T13:45:08.634Z,37.06
2019-06-27T13:47:39.449Z,36.78
2019-06-27T13:50:10.204Z,37.13
2019-06-27T13:52:40.928Z,36.69
2019-06-27T13:55:11.874Z,36.49
2019-06-27T13:57:42.419Z,36.63
2019-06-27T14:00:13.102Z,35.80
2019-06-27T14:02:43.581Z,35.71
2019-06-27T14:05:14.163Z,35.40
2019-06-27T14:07:44.646Z,36.10
2019-06-27T14:10:15.097Z,36.16
2019-06-27T14:12:45.609Z,36.38
2019-06-27T14:15:16.295Z,36.40
2019-06-27T14:17:47.500Z,35.84
2019-06-27T14:20:18.160Z,36.22
2019-06-27T14:22:48.988Z,36.27
2019-06-27T14:25:19.445Z,36.44
2019-06-27T14:27:50.461Z,36.70
2019-06-27T14:30:21.523Z,36.47
2019-06-27T14:32:53.392Z,35.79
2019-06-27T14:35:24.130Z,35.60
2019-06-27T14:37:54.616Z,35.21
2019-06-27T14:40:25.498Z,36.01
2019-06-27T14:42:56.012Z,36.32
2019-06-27T14:45:26.618Z,35.84
2019-06-27T14:47:57.113Z,35.80
2019-06-27T14:50:27.507Z,36.38
2019-06-27T14:52:58.070Z,36.29
2019-06-27T14:55:28.759Z,36.30
2019-06-27T14:57:59.108Z,37.13
2019-06-27T15:00:30.126Z,36.61
2019-06-27T15:03:00.461Z,36.86
2019-06-27T15:05:32.859Z,36.44
2019-06-27T15:08:03.274Z,36.20
2019-06-27T15:10:33.740Z,36.39
2019-06-27T15:13:04.142Z,35.74
2019-06-27T15:15:34.531Z,36.61
2019-06-27T15:18:05.163Z,36.76
2019-06-27T15:20:35.278Z,36.25
2019-06-27T15:23:05.797Z,36.75
2019-06-27T15:25:36.322Z,37.17
2019-06-27T15:28:06.741Z,37.04
2019-06-27T15:30:37.193Z,36.49
2019-06-27T15:33:07.900Z,36.55
2019-06-27T15:35:51.784Z,36.80
2019-06-27T15:38:10.737Z,36.46
2019-06-27T15:40:41.399Z,36.93
2019-06-27T15:43:11.840Z,37.10
2019-06-27T15:45:42.273Z,36.95
2019-06-27T15:48:12.768Z,37.38
2019-06-27T15:50:43.131Z,37.47
2019-06-27T15:53:13.636Z,37.19
2019-06-27T15:55:44.402Z,36.73
2019-06-27T15:58:14.851Z,36.64
2019-06-27T16:00:45.519Z,37.04
2019-06-27T16:03:16.010Z,37.50
2019-06-27T16:05:46.635Z,37.57
2019-06-27T16:08:16.954Z,37.49
2019-06-27T16:10:47.417Z,37.14
2019-06-27T16:13:17.851Z,38.17
2019-06-27T16:15:48.127Z,38.52
2019-06-27T16:18:18.449Z,38.57
2019-06-27T16:20:48.936Z,38.58
2019-06-27T16:23:19.548Z,39.26
2019-06-27T16:25:49.884Z,38.79
2019-06-27T16:28:20.643Z,39.18
2019-06-27T16:30:51.135Z,39.29
2019-06-27T16:33:21.907Z,38.34
2019-06-27T16:35:52.804Z,38.36
2019-06-27T16:38:23.320Z,38.35
2019-06-27T16:40:53.744Z,38.62
2019-06-27T16:43:24.289Z,38.71
2019-06-27T16:45:54.883Z,38.90
2019-06-27T16:48:25.339Z,38.89
2019-06-27T16:50:56.169Z,39.02
2019-06-27T16:53:26.628Z,39.50
2019-06-27T16:55:57.690Z,39.25
2019-06-27T16:58:28.155Z,40.44
2019-06-27T17:00:58.636Z,40.72
2019-06-27T17:03:29.333Z,40.36
2019-06-27T17:05:59.828Z,40.36
2019-06-27T17:08:30.374Z,40.91
2019-06-27T17:11:01.002Z,40.28
2019-06-27T17:13:31.457Z,40.53
2019-06-27T17:16:01.938Z,41.08
2019-06-27T17:18:32.405Z,41.59
2019-06-27T17:21:02.915Z,40.61
2019-06-27T17:23:33.319Z,40.89
2019-06-27T17:26:03.736Z,41.11
2019-06-27T17:28:35.376Z,41.20
2019-06-27T17:31:06.922Z,40.57
2019-06-27T17:33:37.408Z,40.37
2019-06-27T17:36:07.900Z,39.97
2019-06-27T17:38:38.467Z,40.06
2019-06-27T17:41:08.962Z,40.06
2019-06-27T17:43:41.492Z,40.41
2019-06-27T17:46:11.609Z,40.84
2019-06-27T17:48:42.150Z,40.66
2019-06-27T17:51:12.640Z,40.47
2019-06-27T17:53:43.912Z,40.59
2019-06-27T17:56:14.506Z,40.20
2019-06-27T17:58:44.828Z,40.14
2019-06-27T18:01:15.200Z,40.28
2019-06-27T18:03:45.711Z,40.86
2019-06-27T18:06:16.334Z,40.62
2019-06-27T18:08:46.676Z,40.70
2019-06-27T18:11:17.168Z,40.98
2019-06-27T18:13:47.484Z,41.31
2019-06-27T18:16:18.053Z,41.80
2019-06-27T18:18:48.423Z,41.61
2019-06-27T18:21:18.842Z,42.18
2019-06-27T18:23:49.116Z,42.62
2019-06-27T18:26:19.875Z,42.72
2019-06-27T18:28:50.282Z,43.19
2019-06-27T18:31:20.746Z,43.37
2019-06-27T18:33:51.234Z,45.32
2019-06-27T18:36:21.653Z,46.27
2019-06-27T18:38:51.972Z,47.56
2019-06-27T18:41:22.539Z,48.03
2019-06-27T18:43:52.835Z,48.26
2019-06-27T18:46:23.267Z,48.69
2019-06-27T18:48:53.658Z,49.12
2019-06-27T18:51:24.171Z,48.85
2019-06-27T18:53:54.451Z,49.51
2019-06-27T18:56:25.132Z,49.55
2019-06-27T18:58:55.623Z,50.08
2019-06-27T19:01:26.126Z,49.58
2019-06-27T19:03:56.527Z,50.07
2019-06-27T19:06:27.388Z,50.67
2019-06-27T19:08:57.785Z,50.65
2019-06-27T19:11:28.282Z,50.98
2019-06-27T19:13:58.672Z,51.15
2019-06-27T19:16:29.404Z,51.16
2019-06-27T19:19:01.588Z,50.99
2019-06-27T19:21:42.010Z,51.35
2019-06-27T19:24:35.936Z,50.86
2019-06-27T19:27:06.442Z,51.30
2019-06-27T19:29:36.991Z,52.88
2019-06-27T19:32:07.557Z,50.76
2019-06-27T19:34:38.081Z,49.29
2019-06-27T19:37:09.786Z,47.87
2019-06-27T19:39:40.346Z,47.42
2019-06-27T19:42:11.228Z,47.99
2019-06-27T19:44:42.051Z,46.78
2019-06-27T19:47:12.523Z,46.84
2019-06-27T19:49:43.559Z,46.64
2019-06-27T19:52:13.982Z,46.26
2019-06-27T19:54:45.287Z,46.57
2019-06-27T19:57:16.391Z,47.33
2019-06-27T19:59:47.049Z,46.68
2019-06-27T20:02:18.589Z,46.53
2019-06-27T20:04:49.041Z,46.20
2019-06-27T20:07:19.823Z,46.56
2019-06-27T20:09:50.319Z,50.07
2019-06-27T20:12:20.944Z,51.31
2019-06-27T20:14:51.587Z,50.48
2019-06-27T20:17:21.946Z,52.03
2019-06-27T20:19:53.398Z,52.82
2019-06-27T20:22:24.737Z,52.62
2019-06-27T20:24:55.702Z,53.00
2019-06-27T20:27:26.838Z,52.70
2019-06-27T20:29:59.089Z,53.46
2019-06-27T20:32:29.573Z,51.90
2019-06-27T20:34:59.922Z,54.50
2019-06-27T20:37:30.584Z,52.10
2019-06-27T20:40:00.985Z,51.77
2019-06-27T20:42:31.416Z,52.84
2019-06-27T20:45:01.991Z,52.14
2019-06-27T20:47:32.583Z,53.35
2019-06-27T20:50:03.377Z,51.94
2019-06-27T20:52:35.107Z,53.83
2019-06-27T20:55:06.574Z,52.17
2019-06-27T20:57:37.629Z,52.93
2019-06-27T21:00:09.650Z,53.59
2019-06-27T21:02:40.113Z,54.46
2019-06-27T21:05:11.078Z,54.13
2019-06-27T21:07:42.541Z,54.72
2019-06-27T21:10:14.300Z,55.40
2019-06-27T21:12:45.656Z,53.82
2019-06-27T21:15:17.550Z,54.41
2019-06-27T21:17:48.532Z,54.33
2019-06-27T21:20:21.066Z,54.72
2019-06-27T21:22:52.305Z,55.28
2019-06-27T21:25:22.820Z,56.17
2019-06-27T21:27:53.490Z,55.23
2019-06-27T21:30:25.289Z,56.57
2019-06-27T21:32:55.846Z,55.09
2019-06-27T21:35:26.227Z,55.33
2019-06-27T21:37:57.012Z,55.85
2019-06-27T21:40:27.743Z,57.20
2019-06-27T21:42:58.247Z,55.90
2019-06-27T21:45:28.731Z,56.74
2019-06-27T21:47:59.125Z,57.18
2019-06-27T21:50:29.968Z,54.61
2019-06-27T21:53:01.769Z,56.57
2019-06-27T21:55:32.997Z,54.46
2019-06-27T21:58:04.052Z,57.02
2019-06-27T22:00:36.469Z,56.98
2019-06-27T22:03:07.546Z,57.15
2019-06-27T22:05:38.421Z,57.66
2019-06-27T22:08:09.018Z,55.89
2019-06-27T22:10:39.572Z,55.96
2019-06-27T22:13:10.727Z,56.49
2019-06-27T22:15:42.205Z,57.71
2019-06-27T22:18:13.332Z,56.72
2019-06-27T22:20:45.109Z,58.13
2019-06-27T22:23:16.449Z,57.60
2019-06-27T22:25:46.879Z,58.55
2019-06-27T22:28:17.249Z,58.32
2019-06-27T22:30:47.750Z,58.92
2019-06-27T22:33:18.241Z,58.92
2019-06-27T22:35:48.679Z,59.44
2019-06-27T22:38:36.901Z,60.07
2019-06-27T22:41:25.308Z,59.43
2019-06-27T22:44:13.597Z,60.21
2019-06-27T22:47:02.303Z,59.11
2019-06-27T22:49:32.585Z,60.34
2019-06-27T22:52:34.421Z,60.03
2019-06-27T22:55:05.930Z,58.71
2019-06-27T22:57:36.268Z,57.45
2019-06-27T23:00:07.205Z,60.89
2019-06-27T23:02:38.084Z,58.88
2019-06-27T23:05:08.860Z,61.40
2019-06-27T23:07:39.357Z,61.10
2019-06-27T23:10:10.044Z,57.70
2019-06-27T23:12:40.838Z,54.77
2019-06-27T23:15:11.882Z,54.22
2019-06-27T23:17:42.416Z,55.88
2019-06-27T23:20:13.390Z,52.95
2019-06-27T23:22:43.787Z,55.22
2019-06-27T23:25:14.983Z,54.81
2019-06-27T23:27:45.397Z,55.24
2019-06-27T23:30:16.591Z,53.67
2019-06-27T23:32:46.970Z,54.26
2019-06-27T23:35:17.484Z,52.86
2019-06-27T23:37:48.401Z,52.90
2019-06-27T23:40:19.738Z,55.37
2019-06-27T23:42:50.105Z,55.26
2019-06-27T23:45:21.118Z,55.78
2019-06-27T23:47:51.825Z,58.21
2019-06-27T23:50:22.317Z,56.35
2019-06-27T23:52:53.098Z,56.17
2019-06-27T23:55:23.653Z,55.63
2019-06-27T23:57:55.210Z,55.40
